Flight Briefing for CMB859

Departure Arrival
Ambouli International Airport (HDAM)
Click to view FAA NOTAMS
Bahrain International Airport (OBBI)
Click to view FAA NOTAMS
Departure Time Arrival Time
N/A N/A
Aircraft Distance
B757-200SF 977nm
Departure METAR Arrival METAR
No METAR available for HDAM. OBBI 271130Z 01007KT 330V050 CAVOK 37/15 Q1005 NOSIG
Suggested Route
TORBA2E TORBA B535 KRA UM651 NADKI M318 DEGPA UT100 KUTNA UL564 BAT UL564 DOH VEDED P699 SOGAT


View recent IFR Routes data
Notes
USTRANSCOM CONTRACT FLIGHT

Charts and Procedures

Charts for HDAM
No chart available
Charts for OBBI
No chart available

Windy.com Weather Map